sensor_id;sensor_type;location;lat;lon;timestamp;P1;durP1;ratioP1;P2;durP2;ratioP2
67675;SDS011;54456;48.436;10.028;2022-12-24T00:00:36;6.90;;;1.23;;
67675;SDS011;54456;48.436;10.028;2022-12-24T00:02:07;3.83;;;0.90;;
67675;SDS011;54456;48.436;10.028;2022-12-24T00:03:37;4.10;;;1.10;;
67675;SDS011;54456;48.436;10.028;2022-12-24T00:05:08;5.13;;;1.10;;
67675;SDS011;54456;48.436;10.028;2022-12-24T00:06:39;2.42;;;0.90;;
67675;SDS011;54456;48.436;10.028;2022-12-24T00:08:10;1.90;;;0.80;;
67675;SDS011;54456;48.436;10.028;2022-12-24T00:09:40;4.93;;;1.00;;
67675;SDS011;54456;48.436;10.028;2022-12-24T00:11:10;1.75;;;0.80;;
67675;SDS011;54456;48.436;10.028;2022-12-24T00:12:41;4.78;;;1.00;;
67675;SDS011;54456;48.436;10.028;2022-12-24T00:14:11;5.80;;;1.00;;
67675;SDS011;54456;48.436;10.028;2022-12-24T00:15:41;4.07;;;0.90;;
67675;SDS011;54456;48.436;10.028;2022-12-24T00:17:12;3.40;;;0.93;;
67675;SDS011;54456;48.436;10.028;2022-12-24T00:18:42;3.25;;;1.10;;
67675;SDS011;54456;48.436;10.028;2022-12-24T00:20:12;2.27;;;0.83;;
67675;SDS011;54456;48.436;10.028;2022-12-24T00:21:43;4.00;;;1.00;;
67675;SDS011;54456;48.436;10.028;2022-12-24T00:23:13;3.53;;;0.93;;
67675;SDS011;54456;48.436;10.028;2022-12-24T00:24:46;2.00;;;0.80;;
67675;SDS011;54456;48.436;10.028;2022-12-24T00:26:16;2.43;;;0.80;;
67675;SDS011;54456;48.436;10.028;2022-12-24T00:27:46;3.47;;;0.77;;
67675;SDS011;54456;48.436;10.028;2022-12-24T00:29:18;4.43;;;1.00;;
67675;SDS011;54456;48.436;10.028;2022-12-24T04:16:23;4.85;;;1.20;;
67675;SDS011;54456;48.436;10.028;2022-12-24T04:17:53;5.18;;;1.02;;
67675;SDS011;54456;48.436;10.028;2022-12-24T04:19:23;2.93;;;0.80;;
67675;SDS011;54456;48.436;10.028;2022-12-24T04:20:54;3.15;;;1.13;;
67675;SDS011;54456;48.436;10.028;2022-12-24T04:22:24;5.30;;;1.30;;
67675;SDS011;54456;48.436;10.028;2022-12-24T04:23:54;4.47;;;1.10;;
67675;SDS011;54456;48.436;10.028;2022-12-24T04:25:25;4.57;;;1.17;;
67675;SDS011;54456;48.436;10.028;2022-12-24T04:26:55;4.97;;;1.20;;
67675;SDS011;54456;48.436;10.028;2022-12-24T04:28:27;3.83;;;1.17;;
67675;SDS011;54456;48.436;10.028;2022-12-24T04:29:58;2.95;;;1.05;;
67675;SDS011;54456;48.436;10.028;2022-12-24T04:31:28;3.80;;;1.20;;
67675;SDS011;54456;48.436;10.028;2022-12-24T04:32:59;4.78;;;1.33;;
67675;SDS011;54456;48.436;10.028;2022-12-24T04:34:29;5.87;;;1.20;;
67675;SDS011;54456;48.436;10.028;2022-12-24T04:36:00;5.78;;;1.30;;
67675;SDS011;54456;48.436;10.028;2022-12-24T04:37:32;4.47;;;1.30;;
67675;SDS011;54456;48.436;10.028;2022-12-24T04:39:02;6.82;;;1.40;;
67675;SDS011;54456;48.436;10.028;2022-12-24T04:40:33;3.90;;;1.25;;
67675;SDS011;54456;48.436;10.028;2022-12-24T04:42:03;6.18;;;1.50;;
67675;SDS011;54456;48.436;10.028;2022-12-24T04:43:33;2.73;;;0.93;;
67675;SDS011;54456;48.436;10.028;2022-12-24T04:45:04;6.20;;;1.23;;
67675;SDS011;54456;48.436;10.028;2022-12-24T04:46:35;4.55;;;1.10;;
67675;SDS011;54456;48.436;10.028;2022-12-24T04:48:05;5.72;;;1.15;;
67675;SDS011;54456;48.436;10.028;2022-12-24T04:49:35;3.67;;;1.00;;
67675;SDS011;54456;48.436;10.028;2022-12-24T04:51:06;4.57;;;1.15;;
67675;SDS011;54456;48.436;10.028;2022-12-24T04:52:37;3.63;;;1.13;;
67675;SDS011;54456;48.436;10.028;2022-12-24T04:54:07;3.23;;;1.00;;
67675;SDS011;54456;48.436;10.028;2022-12-24T04:55:37;3.47;;;1.20;;
67675;SDS011;54456;48.436;10.028;2022-12-24T04:57:08;5.00;;;1.40;;
67675;SDS011;54456;48.436;10.028;2022-12-24T04:58:39;6.50;;;1.33;;
67675;SDS011;54456;48.436;10.028;2022-12-24T05:00:09;7.07;;;1.35;;
67675;SDS011;54456;48.436;10.028;2022-12-24T05:01:40;4.93;;;1.10;;
67675;SDS011;54456;48.436;10.028;2022-12-24T05:03:11;7.03;;;1.47;;
67675;SDS011;54456;48.436;10.028;2022-12-24T05:04:41;5.78;;;1.40;;
67675;SDS011;54456;48.436;10.028;2022-12-24T05:06:12;4.37;;;1.20;;
67675;SDS011;54456;48.436;10.028;2022-12-24T05:07:44;1.60;;;0.68;;
67675;SDS011;54456;48.436;10.028;2022-12-24T05:09:14;4.03;;;1.03;;
67675;SDS011;54456;48.436;10.028;2022-12-24T05:10:44;6.33;;;1.33;;
67675;SDS011;54456;48.436;10.028;2022-12-24T05:12:24;4.82;;;1.10;;
67675;SDS011;54456;48.436;10.028;2022-12-24T05:13:54;7.15;;;1.20;;
67675;SDS011;54456;48.436;10.028;2022-12-24T05:15:25;3.72;;;1.08;;
67675;SDS011;54456;48.436;10.028;2022-12-24T05:16:55;4.82;;;1.00;;
67675;SDS011;54456;48.436;10.028;2022-12-24T05:18:26;5.40;;;1.30;;
67675;SDS011;54456;48.436;10.028;2022-12-24T05:19:56;4.90;;;1.13;;
67675;SDS011;54456;48.436;10.028;2022-12-24T05:21:26;3.60;;;1.47;;
67675;SDS011;54456;48.436;10.028;2022-12-24T05:22:57;5.63;;;1.20;;
67675;SDS011;54456;48.436;10.028;2022-12-24T05:24:46;4.63;;;1.27;;
67675;SDS011;54456;48.436;10.028;2022-12-24T05:26:36;3.90;;;1.10;;
67675;SDS011;54456;48.436;10.028;2022-12-24T05:28:15;3.60;;;1.02;;
67675;SDS011;54456;48.436;10.028;2022-12-24T05:29:45;5.05;;;1.30;;
67675;SDS011;54456;48.436;10.028;2022-12-24T05:31:16;4.88;;;1.10;;
67675;SDS011;54456;48.436;10.028;2022-12-24T05:32:46;5.00;;;1.20;;
67675;SDS011;54456;48.436;10.028;2022-12-24T05:34:16;3.53;;;1.10;;
67675;SDS011;54456;48.436;10.028;2022-12-24T05:35:47;5.28;;;1.38;;
67675;SDS011;54456;48.436;10.028;2022-12-24T05:37:17;3.47;;;1.00;;
67675;SDS011;54456;48.436;10.028;2022-12-24T05:38:48;7.03;;;1.40;;
67675;SDS011;54456;48.436;10.028;2022-12-24T05:40:18;7.50;;;1.20;;
67675;SDS011;54456;48.436;10.028;2022-12-24T05:41:49;6.03;;;1.20;;
67675;SDS011;54456;48.436;10.028;2022-12-24T05:43:19;5.60;;;1.00;;
67675;SDS011;54456;48.436;10.028;2022-12-24T05:44:49;5.33;;;1.30;;
67675;SDS011;54456;48.436;10.028;2022-12-24T05:46:20;5.30;;;1.37;;
67675;SDS011;54456;48.436;10.028;2022-12-24T05:47:52;6.53;;;1.40;;
67675;SDS011;54456;48.436;10.028;2022-12-24T05:49:22;4.57;;;1.20;;
67675;SDS011;54456;48.436;10.028;2022-12-24T05:50:53;3.43;;;1.33;;
67675;SDS011;54456;48.436;10.028;2022-12-24T05:52:23;6.10;;;1.13;;
67675;SDS011;54456;48.436;10.028;2022-12-24T05:53:54;7.03;;;1.67;;
67675;SDS011;54456;48.436;10.028;2022-12-24T05:55:24;5.10;;;1.37;;
67675;SDS011;54456;48.436;10.028;2022-12-24T05:56:55;5.40;;;1.20;;
67675;SDS011;54456;48.436;10.028;2022-12-24T05:58:25;5.28;;;1.30;;
67675;SDS011;54456;48.436;10.028;2022-12-24T05:59:56;5.50;;;1.10;;
67675;SDS011;54456;48.436;10.028;2022-12-24T06:01:26;3.37;;;1.03;;
67675;SDS011;54456;48.436;10.028;2022-12-24T06:02:57;5.63;;;1.50;;
67675;SDS011;54456;48.436;10.028;2022-12-24T06:04:27;6.82;;;1.50;;
67675;SDS011;54456;48.436;10.028;2022-12-24T06:07:29;5.30;;;1.35;;
67675;SDS011;54456;48.436;10.028;2022-12-24T06:08:59;4.67;;;1.37;;
67675;SDS011;54456;48.436;10.028;2022-12-24T06:10:30;5.03;;;1.25;;
67675;SDS011;54456;48.436;10.028;2022-12-24T06:12:00;3.40;;;1.23;;
67675;SDS011;54456;48.436;10.028;2022-12-24T06:13:30;5.23;;;1.50;;
67675;SDS011;54456;48.436;10.028;2022-12-24T06:15:01;4.88;;;1.20;;
67675;SDS011;54456;48.436;10.028;2022-12-24T06:16:31;3.55;;;1.25;;
67675;SDS011;54456;48.436;10.028;2022-12-24T06:18:02;5.00;;;1.30;;
67675;SDS011;54456;48.436;10.028;2022-12-24T06:19:32;4.47;;;1.15;;
67675;SDS011;54456;48.436;10.028;2022-12-24T06:21:03;8.53;;;2.00;;
67675;SDS011;54456;48.436;10.028;2022-12-24T06:22:34;8.80;;;1.98;;
67675;SDS011;54456;48.436;10.028;2022-12-24T06:24:04;9.45;;;1.80;;
67675;SDS011;54456;48.436;10.028;2022-12-24T06:25:35;7.18;;;2.10;;
67675;SDS011;54456;48.436;10.028;2022-12-24T06:27:05;10.10;;;2.17;;
67675;SDS011;54456;48.436;10.028;2022-12-24T06:28:36;9.17;;;1.80;;
67675;SDS011;54456;48.436;10.028;2022-12-24T06:30:07;9.80;;;1.85;;
67675;SDS011;54456;48.436;10.028;2022-12-24T06:31:38;4.38;;;1.23;;
67675;SDS011;54456;48.436;10.028;2022-12-24T06:33:08;7.37;;;1.60;;
67675;SDS011;54456;48.436;10.028;2022-12-24T06:34:38;7.90;;;1.48;;
67675;SDS011;54456;48.436;10.028;2022-12-24T06:36:12;6.13;;;1.53;;
67675;SDS011;54456;48.436;10.028;2022-12-24T06:37:44;7.63;;;1.40;;
67675;SDS011;54456;48.436;10.028;2022-12-24T06:39:14;4.33;;;1.40;;
67675;SDS011;54456;48.436;10.028;2022-12-24T06:40:45;8.07;;;1.63;;
67675;SDS011;54456;48.436;10.028;2022-12-24T06:42:15;7.82;;;1.40;;
67675;SDS011;54456;48.436;10.028;2022-12-24T06:43:46;5.30;;;1.30;;
67675;SDS011;54456;48.436;10.028;2022-12-24T06:45:17;6.07;;;1.13;;
67675;SDS011;54456;48.436;10.028;2022-12-24T06:46:48;6.27;;;1.43;;
67675;SDS011;54456;48.436;10.028;2022-12-24T06:48:18;6.38;;;1.40;;
67675;SDS011;54456;48.436;10.028;2022-12-24T06:49:48;5.80;;;1.50;;
67675;SDS011;54456;48.436;10.028;2022-12-24T06:51:20;6.93;;;1.50;;
67675;SDS011;54456;48.436;10.028;2022-12-24T06:52:51;4.68;;;1.10;;
67675;SDS011;54456;48.436;10.028;2022-12-24T06:54:21;5.30;;;1.20;;
67675;SDS011;54456;48.436;10.028;2022-12-24T06:55:52;5.50;;;1.40;;
67675;SDS011;54456;48.436;10.028;2022-12-24T06:57:22;4.33;;;1.00;;
67675;SDS011;54456;48.436;10.028;2022-12-24T06:58:52;1.33;;;0.70;;
67675;SDS011;54456;48.436;10.028;2022-12-24T07:00:23;3.17;;;1.10;;
67675;SDS011;54456;48.436;10.028;2022-12-24T07:01:53;7.22;;;1.08;;
67675;SDS011;54456;48.436;10.028;2022-12-24T07:03:24;5.50;;;1.55;;
67675;SDS011;54456;48.436;10.028;2022-12-24T07:04:54;6.67;;;1.20;;
67675;SDS011;54456;48.436;10.028;2022-12-24T07:06:25;7.57;;;1.47;;
67675;SDS011;54456;48.436;10.028;2022-12-24T07:07:57;4.00;;;1.15;;
67675;SDS011;54456;48.436;10.028;2022-12-24T07:09:28;6.25;;;1.50;;
67675;SDS011;54456;48.436;10.028;2022-12-24T07:10:58;5.47;;;1.30;;
67675;SDS011;54456;48.436;10.028;2022-12-24T07:12:29;7.38;;;1.67;;
67675;SDS011;54456;48.436;10.028;2022-12-24T07:13:59;5.32;;;1.30;;
67675;SDS011;54456;48.436;10.028;2022-12-24T07:15:30;6.30;;;1.57;;
67675;SDS011;54456;48.436;10.028;2022-12-24T07:17:00;4.63;;;1.30;;
67675;SDS011;54456;48.436;10.028;2022-12-24T07:18:30;4.73;;;1.50;;
67675;SDS011;54456;48.436;10.028;2022-12-24T07:20:01;7.30;;;1.40;;
67675;SDS011;54456;48.436;10.028;2022-12-24T07:21:32;7.22;;;1.60;;
67675;SDS011;54456;48.436;10.028;2022-12-24T07:23:03;6.03;;;1.60;;
67675;SDS011;54456;48.436;10.028;2022-12-24T07:24:33;3.88;;;1.25;;
67675;SDS011;54456;48.436;10.028;2022-12-24T07:26:04;5.87;;;1.57;;
67675;SDS011;54456;48.436;10.028;2022-12-24T07:27:35;5.35;;;1.40;;
67675;SDS011;54456;48.436;10.028;2022-12-24T07:29:05;6.78;;;1.83;;
67675;SDS011;54456;48.436;10.028;2022-12-24T07:30:36;6.50;;;1.85;;
67675;SDS011;54456;48.436;10.028;2022-12-24T07:32:06;4.63;;;1.40;;
67675;SDS011;54456;48.436;10.028;2022-12-24T07:33:37;8.50;;;3.10;;
67675;SDS011;54456;48.436;10.028;2022-12-24T07:35:07;5.80;;;2.10;;
67675;SDS011;54456;48.436;10.028;2022-12-24T07:36:37;7.55;;;2.35;;
67675;SDS011;54456;48.436;10.028;2022-12-24T07:38:08;6.17;;;1.60;;
67675;SDS011;54456;48.436;10.028;2022-12-24T07:39:38;8.10;;;1.60;;
67675;SDS011;54456;48.436;10.028;2022-12-24T07:41:08;4.17;;;1.50;;
67675;SDS011;54456;48.436;10.028;2022-12-24T07:42:39;6.70;;;1.58;;
67675;SDS011;54456;48.436;10.028;2022-12-24T07:44:12;4.97;;;1.70;;
67675;SDS011;54456;48.436;10.028;2022-12-24T07:45:44;9.52;;;2.00;;
67675;SDS011;54456;48.436;10.028;2022-12-24T07:47:14;6.53;;;1.60;;
67675;SDS011;54456;48.436;10.028;2022-12-24T07:48:45;8.13;;;1.90;;
67675;SDS011;54456;48.436;10.028;2022-12-24T07:50:15;6.45;;;1.88;;
67675;SDS011;54456;48.436;10.028;2022-12-24T07:51:45;9.50;;;2.30;;
67675;SDS011;54456;48.436;10.028;2022-12-24T07:53:16;7.18;;;1.50;;
67675;SDS011;54456;48.436;10.028;2022-12-24T07:54:46;8.18;;;2.40;;
67675;SDS011;54456;48.436;10.028;2022-12-24T07:56:16;7.07;;;2.40;;
67675;SDS011;54456;48.436;10.028;2022-12-24T07:57:47;6.85;;;2.53;;
67675;SDS011;54456;48.436;10.028;2022-12-24T07:59:17;6.95;;;1.70;;
67675;SDS011;54456;48.436;10.028;2022-12-24T08:00:48;6.70;;;1.52;;
67675;SDS011;54456;48.436;10.028;2022-12-24T08:02:18;5.25;;;1.65;;
67675;SDS011;54456;48.436;10.028;2022-12-24T08:03:49;5.13;;;1.60;;
67675;SDS011;54456;48.436;10.028;2022-12-24T08:05:23;6.47;;;1.40;;
67675;SDS011;54456;48.436;10.028;2022-12-24T08:06:53;5.63;;;1.67;;
67675;SDS011;54456;48.436;10.028;2022-12-24T08:08:24;9.05;;;1.80;;
67675;SDS011;54456;48.436;10.028;2022-12-24T08:09:54;5.55;;;1.40;;
67675;SDS011;54456;48.436;10.028;2022-12-24T08:11:24;5.33;;;1.73;;
67675;SDS011;54456;48.436;10.028;2022-12-24T08:12:55;6.93;;;1.70;;
67675;SDS011;54456;48.436;10.028;2022-12-24T08:14:25;7.03;;;2.10;;
67675;SDS011;54456;48.436;10.028;2022-12-24T08:15:55;6.40;;;1.50;;
67675;SDS011;54456;48.436;10.028;2022-12-24T08:17:27;7.93;;;1.60;;
67675;SDS011;54456;48.436;10.028;2022-12-24T08:18:57;7.65;;;1.45;;
67675;SDS011;54456;48.436;10.028;2022-12-24T08:20:27;8.10;;;1.73;;
67675;SDS011;54456;48.436;10.028;2022-12-24T08:21:58;4.80;;;1.20;;
67675;SDS011;54456;48.436;10.028;2022-12-24T08:23:28;5.20;;;1.30;;
67675;SDS011;54456;48.436;10.028;2022-12-24T08:24:58;2.58;;;1.05;;
67675;SDS011;54456;48.436;10.028;2022-12-24T08:26:29;8.47;;;1.50;;
67675;SDS011;54456;48.436;10.028;2022-12-24T08:28:01;6.80;;;1.40;;
67675;SDS011;54456;48.436;10.028;2022-12-24T08:29:33;5.90;;;1.40;;
67675;SDS011;54456;48.436;10.028;2022-12-24T08:31:03;7.90;;;1.33;;
67675;SDS011;54456;48.436;10.028;2022-12-24T08:32:34;2.95;;;1.15;;
67675;SDS011;54456;48.436;10.028;2022-12-24T08:34:05;5.65;;;1.30;;
67675;SDS011;54456;48.436;10.028;2022-12-24T08:35:36;4.50;;;1.40;;
67675;SDS011;54456;48.436;10.028;2022-12-24T08:37:07;6.90;;;1.20;;
67675;SDS011;54456;48.436;10.028;2022-12-24T08:38:37;9.67;;;1.77;;
67675;SDS011;54456;48.436;10.028;2022-12-24T08:40:08;9.50;;;1.40;;
67675;SDS011;54456;48.436;10.028;2022-12-24T08:41:38;5.40;;;1.23;;
67675;SDS011;54456;48.436;10.028;2022-12-24T08:43:09;5.47;;;1.33;;
67675;SDS011;54456;48.436;10.028;2022-12-24T08:44:39;8.50;;;1.58;;
67675;SDS011;54456;48.436;10.028;2022-12-24T08:46:10;8.75;;;1.40;;
67675;SDS011;54456;48.436;10.028;2022-12-24T08:47:40;7.00;;;1.50;;
67675;SDS011;54456;48.436;10.028;2022-12-24T08:49:11;5.50;;;1.25;;
67675;SDS011;54456;48.436;10.028;2022-12-24T08:50:42;5.30;;;1.33;;
67675;SDS011;54456;48.436;10.028;2022-12-24T08:52:12;4.18;;;1.23;;
67675;SDS011;54456;48.436;10.028;2022-12-24T08:53:45;6.32;;;1.50;;
67675;SDS011;54456;48.436;10.028;2022-12-24T08:55:16;5.90;;;1.30;;
67675;SDS011;54456;48.436;10.028;2022-12-24T08:56:46;5.35;;;1.10;;
67675;SDS011;54456;48.436;10.028;2022-12-24T08:58:17;6.17;;;1.50;;
67675;SDS011;54456;48.436;10.028;2022-12-24T08:59:47;5.30;;;1.08;;
67675;SDS011;54456;48.436;10.028;2022-12-24T09:01:18;9.68;;;1.50;;
67675;SDS011;54456;48.436;10.028;2022-12-24T09:02:49;10.20;;;1.92;;
67675;SDS011;54456;48.436;10.028;2022-12-24T09:04:20;9.35;;;1.77;;
67675;SDS011;54456;48.436;10.028;2022-12-24T09:05:50;8.63;;;1.90;;
67675;SDS011;54456;48.436;10.028;2022-12-24T09:07:25;6.50;;;1.50;;
67675;SDS011;54456;48.436;10.028;2022-12-24T09:08:55;7.35;;;1.50;;
67675;SDS011;54456;48.436;10.028;2022-12-24T09:10:26;10.52;;;2.10;;
67675;SDS011;54456;48.436;10.028;2022-12-24T09:11:56;7.47;;;1.70;;
67675;SDS011;54456;48.436;10.028;2022-12-24T09:13:27;6.57;;;2.00;;
67675;SDS011;54456;48.436;10.028;2022-12-24T09:14:57;7.53;;;2.00;;
67675;SDS011;54456;48.436;10.028;2022-12-24T09:16:28;6.27;;;2.13;;
67675;SDS011;54456;48.436;10.028;2022-12-24T09:17:59;5.85;;;1.42;;
67675;SDS011;54456;48.436;10.028;2022-12-24T09:19:30;8.00;;;2.42;;
67675;SDS011;54456;48.436;10.028;2022-12-24T09:21:01;14.63;;;2.72;;
67675;SDS011;54456;48.436;10.028;2022-12-24T09:22:36;8.55;;;2.10;;
67675;SDS011;54456;48.436;10.028;2022-12-24T09:24:07;7.35;;;2.10;;
67675;SDS011;54456;48.436;10.028;2022-12-24T09:25:43;6.68;;;2.08;;
67675;SDS011;54456;48.436;10.028;2022-12-24T09:27:13;7.32;;;1.85;;
67675;SDS011;54456;48.436;10.028;2022-12-24T09:28:44;8.73;;;2.42;;
67675;SDS011;54456;48.436;10.028;2022-12-24T09:30:15;7.45;;;1.90;;
67675;SDS011;54456;48.436;10.028;2022-12-24T09:31:45;11.70;;;2.53;;
67675;SDS011;54456;48.436;10.028;2022-12-24T09:33:16;9.23;;;1.60;;
67675;SDS011;54456;48.436;10.028;2022-12-24T09:34:46;12.65;;;3.53;;
67675;SDS011;54456;48.436;10.028;2022-12-24T09:36:17;8.75;;;2.17;;
67675;SDS011;54456;48.436;10.028;2022-12-24T09:37:48;9.77;;;2.53;;
67675;SDS011;54456;48.436;10.028;2022-12-24T09:39:31;9.27;;;2.15;;
67675;SDS011;54456;48.436;10.028;2022-12-24T09:41:10;9.50;;;1.73;;
67675;SDS011;54456;48.436;10.028;2022-12-24T09:47:47;9.20;;;2.88;;
67675;SDS011;54456;48.436;10.028;2022-12-24T09:49:41;7.68;;;2.58;;
67675;SDS011;54456;48.436;10.028;2022-12-24T09:51:28;7.10;;;2.00;;
67675;SDS011;54456;48.436;10.028;2022-12-24T09:53:06;11.90;;;2.30;;
67675;SDS011;54456;48.436;10.028;2022-12-24T09:55:14;10.25;;;2.75;;
67675;SDS011;54456;48.436;10.028;2022-12-24T09:56:57;11.23;;;2.00;;
67675;SDS011;54456;48.436;10.028;2022-12-24T09:58:36;8.43;;;2.40;;
67675;SDS011;54456;48.436;10.028;2022-12-24T10:00:23;6.15;;;2.08;;
67675;SDS011;54456;48.436;10.028;2022-12-24T10:01:54;13.02;;;2.30;;
67675;SDS011;54456;48.436;10.028;2022-12-24T10:03:25;8.50;;;2.60;;
67675;SDS011;54456;48.436;10.028;2022-12-24T10:04:55;9.48;;;2.00;;
67675;SDS011;54456;48.436;10.028;2022-12-24T10:06:32;7.07;;;2.30;;
67675;SDS011;54456;48.436;10.028;2022-12-24T10:11:49;9.80;;;2.40;;
67675;SDS011;54456;48.436;10.028;2022-12-24T10:13:31;11.77;;;2.75;;
67675;SDS011;54456;48.436;10.028;2022-12-24T10:23:52;6.82;;;2.00;;
67675;SDS011;54456;48.436;10.028;2022-12-24T10:27:23;5.97;;;1.60;;
67675;SDS011;54456;48.436;10.028;2022-12-24T10:28:56;5.22;;;1.33;;
67675;SDS011;54456;48.436;10.028;2022-12-24T10:30:28;7.13;;;1.80;;
67675;SDS011;54456;48.436;10.028;2022-12-24T10:36:43;7.27;;;1.73;;
67675;SDS011;54456;48.436;10.028;2022-12-24T10:38:13;10.43;;;1.87;;
67675;SDS011;54456;48.436;10.028;2022-12-24T10:39:43;8.20;;;1.80;;
67675;SDS011;54456;48.436;10.028;2022-12-24T10:41:14;10.53;;;3.20;;
67675;SDS011;54456;48.436;10.028;2022-12-24T10:42:45;6.07;;;1.88;;
67675;SDS011;54456;48.436;10.028;2022-12-24T10:44:16;8.80;;;2.58;;
67675;SDS011;54456;48.436;10.028;2022-12-24T10:45:55;6.15;;;1.65;;
67675;SDS011;54456;48.436;10.028;2022-12-24T10:47:27;10.13;;;3.72;;
67675;SDS011;54456;48.436;10.028;2022-12-24T10:49:02;11.73;;;3.00;;
67675;SDS011;54456;48.436;10.028;2022-12-24T10:50:42;8.65;;;3.05;;
67675;SDS011;54456;48.436;10.028;2022-12-24T10:52:37;8.98;;;1.80;;
67675;SDS011;54456;48.436;10.028;2022-12-24T10:54:15;6.63;;;1.80;;
67675;SDS011;54456;48.436;10.028;2022-12-24T10:55:48;5.45;;;1.60;;
67675;SDS011;54456;48.436;10.028;2022-12-24T10:57:22;6.70;;;1.77;;
67675;SDS011;54456;48.436;10.028;2022-12-24T10:58:57;4.75;;;1.70;;
67675;SDS011;54456;48.436;10.028;2022-12-24T11:00:28;5.72;;;1.83;;
67675;SDS011;54456;48.436;10.028;2022-12-24T11:01:59;7.57;;;1.90;;
67675;SDS011;54456;48.436;10.028;2022-12-24T11:03:33;5.20;;;1.52;;
67675;SDS011;54456;48.436;10.028;2022-12-24T11:05:06;6.55;;;1.70;;
67675;SDS011;54456;48.436;10.028;2022-12-24T11:08:23;8.90;;;2.37;;
67675;SDS011;54456;48.436;10.028;2022-12-24T11:11:29;6.65;;;1.90;;
67675;SDS011;54456;48.436;10.028;2022-12-24T11:13:03;6.50;;;1.77;;
67675;SDS011;54456;48.436;10.028;2022-12-24T11:14:35;5.20;;;1.85;;
67675;SDS011;54456;48.436;10.028;2022-12-24T11:16:09;9.15;;;2.67;;
67675;SDS011;54456;48.436;10.028;2022-12-24T11:17:56;7.95;;;3.08;;
67675;SDS011;54456;48.436;10.028;2022-12-24T11:19:33;8.95;;;3.38;;
67675;SDS011;54456;48.436;10.028;2022-12-24T11:21:05;5.38;;;2.17;;
67675;SDS011;54456;48.436;10.028;2022-12-24T11:22:35;8.55;;;2.38;;
67675;SDS011;54456;48.436;10.028;2022-12-24T11:25:46;5.93;;;2.00;;
67675;SDS011;54456;48.436;10.028;2022-12-24T11:27:39;7.40;;;1.98;;
67675;SDS011;54456;48.436;10.028;2022-12-24T11:29:25;7.47;;;2.42;;
67675;SDS011;54456;48.436;10.028;2022-12-24T11:31:03;8.43;;;3.03;;
67675;SDS011;54456;48.436;10.028;2022-12-24T11:32:34;9.98;;;2.88;;
67675;SDS011;54456;48.436;10.028;2022-12-24T11:34:37;8.70;;;2.60;;
67675;SDS011;54456;48.436;10.028;2022-12-24T11:36:03;7.20;;;2.47;;
67675;SDS011;54456;48.436;10.028;2022-12-24T11:37:35;8.57;;;3.00;;
67675;SDS011;54456;48.436;10.028;2022-12-24T11:39:09;8.50;;;2.92;;
67675;SDS011;54456;48.436;10.028;2022-12-24T11:41:03;9.05;;;2.40;;
67675;SDS011;54456;48.436;10.028;2022-12-24T11:42:35;7.43;;;2.33;;
67675;SDS011;54456;48.436;10.028;2022-12-24T11:44:07;7.43;;;2.55;;
67675;SDS011;54456;48.436;10.028;2022-12-24T11:45:38;7.05;;;2.33;;
67675;SDS011;54456;48.436;10.028;2022-12-24T11:47:09;10.83;;;3.43;;
67675;SDS011;54456;48.436;10.028;2022-12-24T11:48:43;10.63;;;3.08;;
67675;SDS011;54456;48.436;10.028;2022-12-24T11:57:01;7.93;;;2.10;;
67675;SDS011;54456;48.436;10.028;2022-12-24T11:58:48;8.23;;;2.05;;
67675;SDS011;54456;48.436;10.028;2022-12-24T12:00:22;8.07;;;2.47;;
67675;SDS011;54456;48.436;10.028;2022-12-24T12:01:54;7.95;;;2.10;;
67675;SDS011;54456;48.436;10.028;2022-12-24T12:05:02;8.40;;;2.40;;
67675;SDS011;54456;48.436;10.028;2022-12-24T12:06:38;7.65;;;2.40;;
67675;SDS011;54456;48.436;10.028;2022-12-24T12:08:29;7.10;;;2.03;;
67675;SDS011;54456;48.436;10.028;2022-12-24T12:11:34;7.63;;;2.40;;
67675;SDS011;54456;48.436;10.028;2022-12-24T12:13:12;6.75;;;2.13;;
67675;SDS011;54456;48.436;10.028;2022-12-24T12:14:45;7.75;;;1.98;;
67675;SDS011;54456;48.436;10.028;2022-12-24T12:16:36;8.70;;;2.20;;
67675;SDS011;54456;48.436;10.028;2022-12-24T12:18:39;7.88;;;2.30;;
67675;SDS011;54456;48.436;10.028;2022-12-24T12:20:13;10.20;;;1.60;;
67675;SDS011;54456;48.436;10.028;2022-12-24T12:21:48;7.47;;;2.13;;
67675;SDS011;54456;48.436;10.028;2022-12-24T12:23:29;5.60;;;2.00;;
67675;SDS011;54456;48.436;10.028;2022-12-24T12:25:03;8.30;;;2.15;;
67675;SDS011;54456;48.436;10.028;2022-12-24T12:26:34;7.80;;;1.98;;
67675;SDS011;54456;48.436;10.028;2022-12-24T12:28:06;6.80;;;1.92;;
67675;SDS011;54456;48.436;10.028;2022-12-24T12:29:44;6.20;;;1.90;;
67675;SDS011;54456;48.436;10.028;2022-12-24T12:31:25;7.68;;;1.85;;
67675;SDS011;54456;48.436;10.028;2022-12-24T12:35:32;8.10;;;2.00;;
67675;SDS011;54456;48.436;10.028;2022-12-24T12:37:15;7.75;;;1.73;;
67675;SDS011;54456;48.436;10.028;2022-12-24T12:38:49;6.97;;;1.70;;
67675;SDS011;54456;48.436;10.028;2022-12-24T12:40:20;8.25;;;1.77;;
67675;SDS011;54456;48.436;10.028;2022-12-24T12:45:42;4.97;;;1.65;;
67675;SDS011;54456;48.436;10.028;2022-12-24T12:49:20;5.47;;;1.67;;
67675;SDS011;54456;48.436;10.028;2022-12-24T12:50:59;7.38;;;2.15;;
67675;SDS011;54456;48.436;10.028;2022-12-24T12:54:30;7.47;;;1.70;;
67675;SDS011;54456;48.436;10.028;2022-12-24T12:56:22;6.28;;;2.50;;
67675;SDS011;54456;48.436;10.028;2022-12-24T12:58:00;5.32;;;1.52;;
67675;SDS011;54456;48.436;10.028;2022-12-24T12:59:37;6.47;;;1.48;;
67675;SDS011;54456;48.436;10.028;2022-12-24T13:01:21;8.95;;;1.95;;
67675;SDS011;54456;48.436;10.028;2022-12-24T13:13:24;7.75;;;1.77;;
67675;SDS011;54456;48.436;10.028;2022-12-24T13:20:24;5.57;;;1.70;;
67675;SDS011;54456;48.436;10.028;2022-12-24T13:21:56;6.47;;;1.83;;
67675;SDS011;54456;48.436;10.028;2022-12-24T13:23:26;6.25;;;1.65;;
67675;SDS011;54456;48.436;10.028;2022-12-24T13:24:57;5.75;;;1.67;;
67675;SDS011;54456;48.436;10.028;2022-12-24T13:26:27;4.82;;;1.55;;
67675;SDS011;54456;48.436;10.028;2022-12-24T13:28:13;9.77;;;1.90;;
67675;SDS011;54456;48.436;10.028;2022-12-24T13:29:54;8.48;;;2.13;;
67675;SDS011;54456;48.436;10.028;2022-12-24T13:31:27;6.25;;;2.00;;
67675;SDS011;54456;48.436;10.028;2022-12-24T13:32:58;6.93;;;1.92;;
67675;SDS011;54456;48.436;10.028;2022-12-24T13:34:33;8.52;;;2.17;;
67675;SDS011;54456;48.436;10.028;2022-12-24T13:36:06;5.30;;;1.60;;
67675;SDS011;54456;48.436;10.028;2022-12-24T13:37:46;6.47;;;1.83;;
67675;SDS011;54456;48.436;10.028;2022-12-24T13:39:18;5.00;;;1.67;;
67675;SDS011;54456;48.436;10.028;2022-12-24T13:40:48;6.13;;;1.70;;
67675;SDS011;54456;48.436;10.028;2022-12-24T13:44:27;5.75;;;1.60;;
67675;SDS011;54456;48.436;10.028;2022-12-24T13:46:01;4.88;;;1.38;;
67675;SDS011;54456;48.436;10.028;2022-12-24T13:47:32;4.28;;;1.50;;
67675;SDS011;54456;48.436;10.028;2022-12-24T13:49:09;4.93;;;1.30;;
67675;SDS011;54456;48.436;10.028;2022-12-24T13:50:48;4.00;;;1.40;;
67675;SDS011;54456;48.436;10.028;2022-12-24T13:52:23;3.67;;;1.45;;
67675;SDS011;54456;48.436;10.028;2022-12-24T13:53:58;5.68;;;1.30;;
67675;SDS011;54456;48.436;10.028;2022-12-24T13:55:29;5.65;;;1.65;;
67675;SDS011;54456;48.436;10.028;2022-12-24T13:56:59;4.03;;;1.40;;
67675;SDS011;54456;48.436;10.028;2022-12-24T13:58:30;5.13;;;1.52;;
67675;SDS011;54456;48.436;10.028;2022-12-24T14:01:51;4.45;;;1.40;;
67675;SDS011;54456;48.436;10.028;2022-12-24T14:04:53;5.13;;;1.73;;
67675;SDS011;54456;48.436;10.028;2022-12-24T14:06:29;7.32;;;1.58;;
67675;SDS011;54456;48.436;10.028;2022-12-24T14:08:03;5.88;;;1.55;;